createdAt,value
2018-09-09T00:01:56.971Z,59.80
2018-09-09T00:04:24.831Z,59.70
2018-09-09T00:06:52.627Z,59.60
2018-09-09T00:09:26.039Z,59.50
2018-09-09T00:11:54.113Z,59.70
2018-09-09T00:14:21.882Z,59.60
2018-09-09T00:16:50.015Z,59.60
2018-09-09T00:19:17.745Z,59.70
2018-09-09T00:21:45.514Z,59.90
2018-09-09T00:24:13.284Z,59.80
2018-09-09T00:26:41.026Z,59.60
2018-09-09T00:29:08.853Z,59.50
2018-09-09T00:31:36.640Z,59.20
2018-09-09T00:34:04.531Z,59.10
2018-09-09T00:36:32.310Z,59.40
2018-09-09T00:39:00.111Z,59.70
2018-09-09T00:41:27.822Z,59.60
2018-09-09T00:43:55.654Z,59.70
2018-09-09T00:46:23.419Z,60.20
2018-09-09T00:48:57.615Z,60.20
2018-09-09T00:51:30.984Z,60.40
2018-09-09T00:53:59.077Z,60.00
2018-09-09T00:56:26.802Z,60.50
2018-09-09T00:58:54.490Z,61.10
2018-09-09T01:01:22.243Z,61.10
2018-09-09T01:03:49.980Z,60.90
2018-09-09T01:06:17.728Z,60.50
2018-09-09T01:08:45.462Z,60.40
2018-09-09T01:11:13.245Z,60.10
2018-09-09T01:13:41.173Z,59.90
2018-09-09T01:16:09.107Z,60.00
2018-09-09T01:18:37.041Z,60.00
2018-09-09T01:21:05.055Z,60.30
2018-09-09T01:23:32.845Z,60.60
2018-09-09T01:26:00.607Z,60.60
2018-09-09T01:28:28.350Z,60.80
2018-09-09T01:30:56.143Z,61.40
2018-09-09T01:33:23.935Z,61.10
2018-09-09T01:35:51.660Z,61.20
2018-09-09T01:38:19.362Z,61.30
2018-09-09T01:40:47.061Z,61.70
2018-09-09T01:43:14.942Z,62.00
2018-09-09T01:45:42.690Z,61.70
2018-09-09T01:48:10.398Z,61.30
2018-09-09T01:50:38.144Z,61.60
2018-09-09T01:53:05.984Z,61.60
2018-09-09T01:55:33.690Z,61.50
2018-09-09T01:58:01.406Z,62.10
2018-09-09T02:00:29.242Z,62.20
2018-09-09T02:02:56.994Z,61.90
2018-09-09T02:05:24.766Z,61.30
2018-09-09T02:07:52.650Z,61.30
2018-09-09T02:10:20.378Z,61.40
2018-09-09T02:12:48.112Z,61.40
2018-09-09T02:15:15.862Z,61.90
2018-09-09T02:17:43.555Z,61.80
2018-09-09T02:20:11.468Z,61.80
2018-09-09T02:22:39.206Z,61.80
2018-09-09T02:25:07.253Z,62.00
2018-09-09T02:27:35.057Z,61.90
2018-09-09T02:30:02.913Z,61.70
2018-09-09T02:32:30.731Z,62.10
2018-09-09T02:34:58.580Z,61.70
2018-09-09T02:37:26.279Z,62.00
2018-09-09T02:39:54.237Z,62.00
2018-09-09T02:42:22.056Z,62.20
2018-09-09T02:44:49.751Z,62.40
2018-09-09T02:47:17.986Z,62.40
2018-09-09T02:49:45.723Z,62.70
2018-09-09T02:52:13.471Z,62.50
2018-09-09T02:54:41.188Z,62.10
2018-09-09T02:57:09.095Z,61.90
2018-09-09T02:59:36.796Z,62.00
2018-09-09T03:02:04.524Z,62.20
2018-09-09T03:04:32.341Z,62.00
2018-09-09T03:07:00.063Z,62.50
2018-09-09T03:09:27.731Z,62.50
2018-09-09T03:11:55.473Z,62.40
2018-09-09T03:14:23.306Z,63.00
2018-09-09T03:16:50.970Z,63.30
2018-09-09T03:19:18.972Z,63.30
2018-09-09T03:21:46.785Z,63.60
2018-09-09T03:24:14.565Z,62.90
2018-09-09T03:26:42.306Z,62.80
2018-09-09T03:29:10.091Z,63.10
2018-09-09T03:31:37.854Z,63.20
2018-09-09T03:34:05.679Z,63.00
2018-09-09T03:36:33.314Z,62.30
2018-09-09T03:39:01.102Z,62.10
2018-09-09T03:41:28.867Z,62.30
2018-09-09T03:43:56.866Z,62.70
2018-09-09T03:46:24.568Z,62.80
2018-09-09T03:48:52.411Z,63.20
2018-09-09T03:51:20.116Z,63.70
2018-09-09T03:53:47.862Z,63.50
2018-09-09T03:56:15.744Z,62.90
2018-09-09T03:58:43.462Z,62.80
2018-09-09T04:01:11.226Z,62.90
2018-09-09T04:03:38.983Z,63.00
2018-09-09T04:06:06.669Z,62.90
2018-09-09T04:08:34.511Z,63.10
2018-09-09T04:11:08.232Z,63.70
2018-09-09T04:13:36.289Z,64.10
2018-09-09T04:16:04.075Z,64.00
2018-09-09T04:18:31.844Z,63.20
2018-09-09T04:20:59.491Z,62.90
2018-09-09T04:23:27.269Z,62.80
2018-09-09T04:25:54.969Z,62.50
2018-09-09T04:28:22.809Z,62.70
2018-09-09T04:30:50.534Z,63.50
2018-09-09T04:33:18.304Z,64.10
2018-09-09T04:35:46.137Z,64.00
2018-09-09T04:38:13.775Z,63.20
2018-09-09T04:40:41.566Z,63.10
2018-09-09T04:43:09.278Z,62.90
2018-09-09T04:45:37.021Z,63.10
2018-09-09T04:48:04.655Z,63.20
2018-09-09T04:50:32.343Z,63.60
2018-09-09T04:53:00.055Z,63.60
2018-09-09T04:55:27.802Z,64.00
2018-09-09T04:57:55.527Z,64.00
2018-09-09T05:00:23.225Z,64.30
2018-09-09T05:02:50.913Z,64.50
2018-09-09T05:05:18.624Z,64.70
2018-09-09T05:07:46.295Z,65.30
2018-09-09T05:10:13.998Z,66.70
2018-09-09T05:12:41.685Z,65.60
2018-09-09T05:15:09.438Z,65.40
2018-09-09T05:17:37.096Z,65.30
2018-09-09T05:20:05.102Z,65.40
2018-09-09T05:22:32.841Z,65.70
2018-09-09T05:25:00.551Z,66.40
2018-09-09T05:27:28.316Z,67.10
2018-09-09T05:29:55.967Z,67.50
2018-09-09T05:32:23.694Z,67.10
2018-09-09T05:34:51.443Z,67.30
2018-09-09T05:37:19.249Z,66.80
2018-09-09T05:39:46.996Z,66.80
2018-09-09T05:42:14.734Z,66.80
2018-09-09T05:44:42.475Z,67.60
2018-09-09T05:47:10.286Z,68.00
2018-09-09T05:49:38.189Z,67.60
2018-09-09T05:52:05.973Z,68.50
2018-09-09T05:54:33.687Z,68.70
2018-09-09T05:57:01.411Z,69.60
2018-09-09T05:59:29.085Z,70.20
2018-09-09T06:01:56.955Z,70.20
2018-09-09T06:04:25.793Z,70.50
2018-09-09T06:06:53.722Z,70.80
2018-09-09T06:09:21.428Z,70.60
2018-09-09T06:11:49.144Z,71.40
2018-09-09T06:14:16.811Z,70.80
2018-09-09T06:16:44.477Z,71.00
2018-09-09T06:19:12.179Z,71.20
2018-09-09T06:21:39.914Z,71.10
2018-09-09T06:24:07.631Z,71.40
2018-09-09T06:26:35.340Z,71.30
2018-09-09T06:29:03.167Z,70.90
2018-09-09T06:31:30.813Z,70.70
2018-09-09T06:33:58.667Z,71.40
2018-09-09T06:36:26.348Z,71.40
2018-09-09T06:38:54.197Z,71.80
2018-09-09T06:41:21.930Z,71.50
2018-09-09T06:43:49.659Z,72.00
2018-09-09T06:46:17.376Z,71.80
2018-09-09T06:48:45.213Z,72.20
2018-09-09T06:51:12.966Z,72.80
2018-09-09T06:53:40.743Z,72.10
2018-09-09T06:56:08.483Z,72.00
2018-09-09T06:58:36.185Z,72.10
2018-09-09T07:01:03.928Z,72.30
2018-09-09T07:03:31.694Z,72.50
2018-09-09T07:05:59.346Z,71.80
2018-09-09T07:08:27.577Z,71.90
2018-09-09T07:10:55.376Z,71.70
2018-09-09T07:13:23.163Z,71.60
2018-09-09T07:15:50.915Z,71.10
2018-09-09T07:18:18.625Z,71.70
2018-09-09T07:20:46.391Z,71.10
2018-09-09T07:23:14.107Z,70.30
2018-09-09T07:25:41.816Z,70.00
2018-09-09T07:28:09.528Z,70.20
2018-09-09T07:30:37.615Z,70.40
2018-09-09T07:33:05.405Z,70.10
2018-09-09T07:35:33.275Z,70.20
2018-09-09T07:38:01.204Z,69.90
2018-09-09T07:40:28.931Z,69.70
2018-09-09T07:42:56.675Z,69.70
2018-09-09T07:45:24.366Z,69.20
2018-09-09T07:47:52.087Z,69.20
2018-09-09T07:50:19.805Z,69.70
2018-09-09T07:52:47.583Z,69.50
2018-09-09T07:55:15.369Z,69.30
2018-09-09T07:57:43.023Z,69.10
2018-09-09T08:00:10.810Z,68.90
2018-09-09T08:02:38.539Z,68.80
2018-09-09T08:05:06.312Z,68.70
2018-09-09T08:07:34.061Z,68.80
2018-09-09T08:10:01.726Z,68.30
2018-09-09T08:12:29.458Z,67.90
2018-09-09T08:14:57.228Z,67.80
2018-09-09T08:17:24.958Z,67.50
2018-09-09T08:19:53.342Z,66.30
2018-09-09T08:22:21.505Z,65.70
2018-09-09T08:27:26.665Z,66.00
2018-09-09T08:29:54.226Z,65.80
2018-09-09T08:32:21.833Z,65.90
2018-09-09T08:34:49.430Z,65.10
2018-09-09T08:37:17.116Z,65.00
2018-09-09T08:39:44.692Z,64.90
2018-09-09T08:42:12.268Z,65.10
2018-09-09T08:44:39.856Z,65.50
2018-09-09T08:47:07.443Z,65.30
2018-09-09T08:49:35.297Z,65.00
2018-09-09T08:52:02.976Z,64.90
2018-09-09T08:54:30.497Z,64.70
2018-09-09T08:56:58.099Z,64.10
2018-09-09T08:59:25.937Z,64.20
2018-09-09T09:01:53.552Z,63.30
2018-09-09T09:04:21.327Z,62.50
2018-09-09T09:06:48.892Z,62.60
2018-09-09T09:09:16.498Z,62.50
2018-09-09T09:11:44.123Z,62.80
2018-09-09T09:14:11.679Z,62.00
2018-09-09T09:16:39.511Z,61.50
2018-09-09T09:19:07.304Z,60.20
2018-09-09T09:21:35.197Z,60.30
2018-09-09T09:24:02.732Z,58.00
2018-09-09T09:26:30.301Z,58.40
2018-09-09T09:28:57.877Z,58.10
2018-09-09T09:31:25.405Z,56.70
2018-09-09T09:33:53.015Z,57.30
2018-09-09T09:36:20.680Z,55.80
2018-09-09T09:38:48.267Z,55.20
2018-09-09T09:41:15.775Z,53.60
2018-09-09T09:43:43.422Z,52.30
2018-09-09T09:46:11.453Z,51.50
2018-09-09T09:48:39.068Z,52.10
2018-09-09T09:51:06.591Z,52.60
2018-09-09T09:53:40.881Z,52.00
2018-09-09T09:56:08.451Z,51.30
2018-09-09T09:58:36.025Z,51.30
2018-09-09T10:01:03.615Z,50.60
2018-09-09T10:03:31.205Z,50.50
2018-09-09T10:05:58.789Z,49.40
2018-09-09T10:08:26.300Z,48.30
2018-09-09T10:10:54.168Z,49.00
2018-09-09T10:13:21.748Z,48.40
2018-09-09T10:15:49.332Z,47.50
2018-09-09T10:18:16.904Z,47.40
2018-09-09T10:20:44.707Z,46.90
2018-09-09T10:23:12.290Z,45.60
2018-09-09T10:25:40.107Z,45.10
2018-09-09T10:28:07.670Z,45.40
2018-09-09T10:30:35.263Z,45.00
2018-09-09T10:33:02.821Z,44.50
2018-09-09T10:35:30.419Z,44.40
2018-09-09T10:37:58.318Z,43.80
2018-09-09T10:40:25.888Z,44.40
2018-09-09T10:42:53.450Z,43.60
2018-09-09T10:45:21.235Z,44.40
2018-09-09T10:47:48.790Z,44.10
2018-09-09T10:50:16.384Z,43.80
2018-09-09T10:52:43.935Z,43.40
2018-09-09T10:55:11.479Z,44.00
2018-09-09T10:57:39.007Z,42.50
2018-09-09T11:00:06.751Z,42.40
2018-09-09T11:02:34.328Z,43.00
2018-09-09T11:05:01.913Z,43.70
2018-09-09T11:07:29.473Z,42.80
2018-09-09T11:09:57.024Z,43.50
2018-09-09T11:12:30.156Z,43.10
2018-09-09T11:14:59.012Z,42.70
2018-09-09T11:17:26.971Z,42.50
2018-09-09T11:19:54.701Z,42.80
2018-09-09T11:22:22.327Z,42.60
2018-09-09T11:24:49.875Z,41.70
2018-09-09T11:27:17.432Z,41.50
2018-09-09T11:29:45.071Z,41.10
2018-09-09T11:32:12.600Z,40.30
2018-09-09T11:34:40.203Z,39.70
2018-09-09T11:37:07.786Z,38.70
2018-09-09T11:39:35.355Z,38.60
2018-09-09T11:42:03.067Z,38.40
2018-09-09T11:44:31.337Z,37.30
2018-09-09T11:46:58.893Z,38.40
2018-09-09T11:49:26.459Z,37.40
2018-09-09T11:51:54.135Z,37.50
2018-09-09T11:54:22.052Z,38.30
2018-09-09T11:56:49.808Z,38.80
2018-09-09T11:59:17.432Z,39.60
2018-09-09T12:01:44.996Z,38.60
2018-09-09T12:04:12.578Z,37.20
2018-09-09T12:06:40.152Z,37.50
2018-09-09T12:09:09.281Z,36.00
2018-09-09T12:11:36.848Z,36.30
2018-09-09T12:14:04.459Z,36.20
2018-09-09T12:16:31.995Z,36.10
2018-09-09T12:18:59.660Z,35.80
2018-09-09T12:21:27.176Z,36.40
2018-09-09T12:23:54.788Z,36.90
2018-09-09T12:26:22.389Z,37.20
2018-09-09T12:28:50.025Z,36.20
2018-09-09T12:31:17.601Z,35.50
2018-09-09T12:33:45.548Z,35.60
2018-09-09T12:36:13.118Z,35.60
2018-09-09T12:38:40.785Z,36.20
2018-09-09T12:41:08.356Z,36.50
2018-09-09T12:43:41.577Z,36.10
2018-09-09T12:46:14.929Z,36.50
2018-09-09T12:48:48.133Z,36.30
2018-09-09T12:51:15.733Z,36.30
2018-09-09T12:53:43.299Z,36.90
2018-09-09T12:56:10.909Z,36.80
2018-09-09T12:58:38.435Z,36.60
2018-09-09T13:01:06.057Z,36.60
2018-09-09T13:03:33.702Z,36.40
2018-09-09T13:06:01.600Z,36.90
2018-09-09T13:08:29.205Z,36.00
2018-09-09T13:10:56.788Z,36.90
2018-09-09T13:13:24.347Z,35.60
2018-09-09T13:15:51.922Z,36.10
2018-09-09T13:18:19.473Z,36.30
2018-09-09T13:20:47.084Z,36.30
2018-09-09T13:23:14.646Z,35.60
2018-09-09T13:25:42.239Z,36.30
2018-09-09T13:28:09.796Z,36.40
2018-09-09T13:30:37.576Z,36.70
2018-09-09T13:33:05.184Z,37.60
2018-09-09T13:35:32.730Z,36.80
2018-09-09T13:38:00.314Z,35.90
2018-09-09T13:40:27.880Z,36.60
2018-09-09T13:42:55.542Z,37.40
2018-09-09T13:45:23.071Z,35.60
2018-09-09T13:47:50.781Z,35.20
2018-09-09T13:50:18.399Z,34.70
2018-09-09T13:52:45.991Z,35.10
2018-09-09T13:55:13.566Z,35.00
2018-09-09T13:57:41.121Z,34.70
2018-09-09T14:00:08.812Z,34.80
2018-09-09T14:02:36.447Z,34.90
2018-09-09T14:05:04.120Z,35.00
2018-09-09T14:07:31.677Z,34.80
2018-09-09T14:09:59.221Z,35.90
2018-09-09T14:12:26.813Z,36.10
2018-09-09T14:14:54.416Z,35.90
2018-09-09T14:17:22.000Z,35.30
2018-09-09T14:19:49.784Z,36.30
2018-09-09T14:22:17.493Z,35.50
2018-09-09T14:24:45.047Z,35.90
2018-09-09T14:27:12.616Z,35.40
2018-09-09T14:29:40.214Z,34.70
2018-09-09T14:32:07.775Z,35.70
2018-09-09T14:34:35.372Z,35.90
2018-09-09T14:37:02.941Z,35.70
2018-09-09T14:39:30.508Z,35.30
2018-09-09T14:41:58.043Z,35.70
2018-09-09T14:44:25.860Z,36.10
2018-09-09T14:46:53.466Z,35.90
2018-09-09T14:49:21.252Z,36.00
2018-09-09T14:51:48.928Z,36.00
2018-09-09T14:54:16.578Z,35.90
2018-09-09T14:56:44.112Z,35.30
2018-09-09T14:59:11.680Z,35.30
2018-09-09T15:01:39.263Z,36.00
2018-09-09T15:04:06.891Z,36.30
2018-09-09T15:06:34.435Z,36.40
2018-09-09T15:09:02.024Z,36.30
2018-09-09T15:11:29.577Z,36.30
2018-09-09T15:13:57.178Z,36.40
2018-09-09T15:16:24.707Z,36.60
2018-09-09T15:18:52.306Z,37.20
2018-09-09T15:21:19.855Z,36.50
2018-09-09T15:23:47.407Z,36.70
2018-09-09T15:26:14.992Z,36.60
2018-09-09T15:28:42.639Z,36.50
2018-09-09T15:31:10.167Z,37.30
2018-09-09T15:33:37.703Z,36.80
2018-09-09T15:36:05.592Z,36.70
2018-09-09T15:38:39.819Z,37.20
2018-09-09T15:41:07.492Z,37.20
2018-09-09T15:43:35.044Z,37.50
2018-09-09T15:46:02.618Z,37.20
2018-09-09T15:48:30.156Z,37.60
2018-09-09T15:50:57.764Z,37.50
2018-09-09T15:53:25.280Z,37.60
2018-09-09T15:55:52.840Z,37.60
2018-09-09T15:58:20.365Z,37.40
2018-09-09T16:00:47.980Z,37.60
2018-09-09T16:03:15.556Z,37.90
2018-09-09T16:05:43.121Z,37.70
2018-09-09T16:08:10.931Z,37.90
2018-09-09T16:10:38.480Z,37.90
2018-09-09T16:13:06.322Z,37.90
2018-09-09T16:15:33.859Z,37.90
2018-09-09T16:18:01.403Z,37.90
2018-09-09T16:20:29.088Z,38.60
2018-09-09T16:22:56.670Z,37.70
2018-09-09T16:25:24.239Z,38.60
2018-09-09T16:27:51.868Z,39.10
2018-09-09T16:30:19.508Z,39.00
2018-09-09T16:32:47.074Z,38.80
2018-09-09T16:35:14.698Z,39.20
2018-09-09T16:37:42.315Z,39.30
2018-09-09T16:40:09.926Z,39.30
2018-09-09T16:42:37.524Z,39.30
2018-09-09T16:45:05.143Z,39.00
2018-09-09T16:47:32.740Z,39.50
2018-09-09T16:50:00.424Z,39.80
2018-09-09T16:52:28.118Z,39.70
2018-09-09T16:54:55.812Z,39.40
2018-09-09T16:57:23.917Z,39.70
2018-09-09T16:59:51.523Z,39.70
2018-09-09T17:02:19.177Z,39.30
2018-09-09T17:04:46.792Z,40.00
2018-09-09T17:07:14.416Z,40.40
2018-09-09T17:09:42.071Z,40.50
2018-09-09T17:12:09.701Z,41.50
2018-09-09T17:14:37.336Z,40.40
2018-09-09T17:17:05.672Z,40.80
2018-09-09T17:19:33.641Z,40.80
2018-09-09T17:22:01.390Z,41.70
2018-09-09T17:24:29.117Z,42.40
2018-09-09T17:26:56.812Z,42.70
2018-09-09T17:29:25.744Z,43.40
2018-09-09T17:31:53.644Z,44.20
2018-09-09T17:34:21.621Z,45.00
2018-09-09T17:36:49.363Z,45.20
2018-09-09T17:39:17.120Z,45.90
2018-09-09T17:41:44.746Z,46.00
2018-09-09T17:44:14.144Z,46.20
2018-09-09T17:46:41.805Z,46.50
2018-09-09T17:49:09.772Z,47.20
2018-09-09T17:51:37.422Z,47.30
2018-09-09T17:54:06.112Z,47.80
2018-09-09T17:56:33.688Z,48.10
2018-09-09T17:59:01.293Z,48.30
2018-09-09T18:01:28.920Z,48.70
2018-09-09T18:03:56.493Z,48.40
2018-09-09T18:06:24.079Z,48.60
2018-09-09T18:08:51.703Z,48.80
2018-09-09T18:11:19.313Z,48.60
2018-09-09T18:13:46.916Z,48.60
2018-09-09T18:16:14.497Z,48.60
2018-09-09T18:18:42.171Z,48.70
2018-09-09T18:21:09.824Z,49.30
2018-09-09T18:23:37.468Z,50.90
2018-09-09T18:26:05.041Z,50.60
2018-09-09T18:28:32.683Z,49.90
2018-09-09T18:31:00.251Z,49.50
2018-09-09T18:33:27.841Z,50.40
2018-09-09T18:35:55.549Z,49.90
2018-09-09T18:38:23.085Z,50.60
2018-09-09T18:40:50.685Z,50.80
2018-09-09T18:43:18.348Z,50.50
2018-09-09T18:45:45.929Z,50.70
2018-09-09T18:48:13.672Z,50.70
2018-09-09T18:50:41.333Z,50.80
2018-09-09T18:53:09.294Z,51.00
2018-09-09T18:55:36.944Z,51.20
2018-09-09T18:58:04.564Z,51.40
2018-09-09T19:00:32.209Z,51.20
2018-09-09T19:02:59.982Z,51.50
2018-09-09T19:05:27.631Z,51.30
2018-09-09T19:07:55.886Z,52.20
2018-09-09T19:10:23.705Z,52.50
2018-09-09T19:12:51.760Z,52.90
2018-09-09T19:15:19.388Z,53.30
2018-09-09T19:17:47.068Z,53.80
2018-09-09T19:20:14.796Z,53.40
2018-09-09T19:22:42.526Z,53.10
2018-09-09T19:25:10.232Z,52.80
2018-09-09T19:27:37.912Z,53.00
2018-09-09T19:30:05.809Z,53.00
2018-09-09T19:32:33.576Z,53.00
2018-09-09T19:35:01.328Z,53.20
2018-09-09T19:37:29.057Z,53.70
2018-09-09T19:39:56.878Z,53.80
2018-09-09T19:42:24.460Z,53.30
2018-09-09T19:44:52.188Z,53.60
2018-09-09T19:47:20.033Z,53.80
2018-09-09T19:49:48.078Z,53.50
2018-09-09T19:52:15.956Z,54.10
2018-09-09T19:54:43.735Z,54.00
2018-09-09T19:57:11.848Z,54.70
2018-09-09T19:59:39.579Z,54.40
2018-09-09T20:02:07.296Z,53.80
2018-09-09T20:04:34.989Z,54.00
2018-09-09T20:07:02.749Z,53.90
2018-09-09T20:09:30.471Z,54.40
2018-09-09T20:11:59.176Z,54.30
2018-09-09T20:14:26.819Z,55.00
2018-09-09T20:16:54.657Z,54.50
2018-09-09T20:19:22.373Z,55.00
2018-09-09T20:21:50.049Z,54.70
2018-09-09T20:24:17.714Z,54.50
2018-09-09T20:26:45.359Z,54.60
2018-09-09T20:29:13.156Z,56.50
2018-09-09T20:31:40.883Z,55.90
2018-09-09T20:34:08.589Z,55.90
2018-09-09T20:36:36.298Z,56.30
2018-09-09T20:39:07.108Z,56.20
2018-09-09T20:41:34.818Z,56.50
2018-09-09T20:44:02.545Z,55.70
2018-09-09T20:46:30.266Z,55.40
2018-09-09T20:48:58.026Z,56.00
2018-09-09T20:51:25.816Z,56.30
2018-09-09T20:53:53.679Z,56.60
2018-09-09T20:56:21.380Z,56.90
2018-09-09T20:58:49.641Z,56.70
2018-09-09T21:01:17.307Z,56.70
2018-09-09T21:03:45.146Z,56.90
2018-09-09T21:06:12.825Z,57.10
2018-09-09T21:08:40.522Z,56.70
2018-09-09T21:11:08.290Z,56.90
2018-09-09T21:13:36.065Z,56.70
2018-09-09T21:16:04.029Z,56.40
2018-09-09T21:18:31.732Z,56.60
2018-09-09T21:20:59.387Z,57.00
2018-09-09T21:23:27.261Z,57.10
2018-09-09T21:25:55.030Z,57.80
2018-09-09T21:28:22.703Z,56.70
2018-09-09T21:30:50.744Z,56.50
2018-09-09T21:33:18.456Z,56.90
2018-09-09T21:35:46.223Z,57.50
2018-09-09T21:38:13.895Z,57.30
2018-09-09T21:40:41.565Z,56.90
2018-09-09T21:43:09.196Z,56.80
2018-09-09T21:45:36.820Z,56.40
2018-09-09T21:48:04.801Z,56.60
2018-09-09T21:50:32.406Z,56.90
2018-09-09T21:53:00.479Z,57.50
2018-09-09T21:55:28.116Z,57.70
2018-09-09T21:57:55.738Z,57.50
2018-09-09T22:00:23.674Z,57.30
2018-09-09T22:02:51.344Z,58.00
2018-09-09T22:05:18.981Z,58.20
2018-09-09T22:07:46.627Z,58.00
2018-09-09T22:10:14.309Z,57.70
2018-09-09T22:12:42.286Z,58.00
2018-09-09T22:15:10.029Z,58.60
2018-09-09T22:17:37.853Z,59.00
2018-09-09T22:20:05.588Z,59.40
2018-09-09T22:22:33.349Z,59.00
2018-09-09T22:25:01.027Z,58.60
2018-09-09T22:27:28.673Z,59.60
2018-09-09T22:29:56.397Z,59.70
2018-09-09T22:32:24.359Z,59.20
2018-09-09T22:34:52.008Z,58.50
2018-09-09T22:37:19.616Z,58.20
2018-09-09T22:39:47.323Z,58.20
2018-09-09T22:42:15.096Z,58.00
2018-09-09T22:44:42.882Z,57.70
2018-09-09T22:47:10.488Z,57.20
2018-09-09T22:49:38.165Z,57.80
2018-09-09T22:52:05.880Z,58.20
2018-09-09T22:54:33.556Z,58.00
2018-09-09T22:57:01.853Z,57.90
2018-09-09T22:59:29.569Z,58.80
2018-09-09T23:01:57.305Z,59.20
2018-09-09T23:04:25.001Z,58.30
2018-09-09T23:06:52.649Z,58.50
2018-09-09T23:09:20.360Z,57.80
2018-09-09T23:11:48.052Z,58.80
2018-09-09T23:14:15.712Z,58.00
2018-09-09T23:16:43.988Z,57.70
2018-09-09T23:19:11.717Z,58.00
2018-09-09T23:21:39.300Z,58.70
2018-09-09T23:24:13.972Z,58.20
2018-09-09T23:26:41.581Z,58.70
2018-09-09T23:29:10.445Z,58.80
2018-09-09T23:31:38.249Z,58.90
2018-09-09T23:34:06.033Z,59.20
2018-09-09T23:36:33.836Z,58.30
2018-09-09T23:39:01.441Z,58.40
2018-09-09T23:41:29.088Z,58.40
2018-09-09T23:43:56.724Z,58.50
2018-09-09T23:46:24.400Z,59.10
2018-09-09T23:48:52.065Z,59.10
2018-09-09T23:51:19.962Z,59.30
2018-09-09T23:53:47.616Z,59.40
2018-09-09T23:56:16.044Z,59.80
2018-09-09T23:58:43.739Z,59.10
